sensor_id;sensor_type;location;lat;lon;timestamp;P1;durP1;ratioP1;P2;durP2;ratioP2
58294;SDS011;45705;55.592;37.460;2024-02-26T00:02:00;10.52;;;4.07;;
58294;SDS011;45705;55.592;37.460;2024-02-26T00:04:26;8.63;;;3.65;;
58294;SDS011;45705;55.592;37.460;2024-02-26T00:06:51;9.68;;;4.03;;
58294;SDS011;45705;55.592;37.460;2024-02-26T00:09:19;7.18;;;4.28;;
58294;SDS011;45705;55.592;37.460;2024-02-26T00:11:45;11.25;;;4.28;;
58294;SDS011;45705;55.592;37.460;2024-02-26T00:14:10;6.90;;;3.40;;
58294;SDS011;45705;55.592;37.460;2024-02-26T00:16:36;5.72;;;3.20;;
58294;SDS011;45705;55.592;37.460;2024-02-26T00:19:04;9.15;;;3.67;;
58294;SDS011;45705;55.592;37.460;2024-02-26T00:21:30;8.95;;;4.63;;
58294;SDS011;45705;55.592;37.460;2024-02-26T00:23:56;8.30;;;4.13;;
58294;SDS011;45705;55.592;37.460;2024-02-26T00:26:21;8.10;;;3.75;;
58294;SDS011;45705;55.592;37.460;2024-02-26T00:28:47;6.57;;;3.92;;
58294;SDS011;45705;55.592;37.460;2024-02-26T00:31:13;9.55;;;4.10;;
58294;SDS011;45705;55.592;37.460;2024-02-26T00:33:38;7.22;;;3.67;;
58294;SDS011;45705;55.592;37.460;2024-02-26T00:36:04;6.75;;;3.30;;
58294;SDS011;45705;55.592;37.460;2024-02-26T00:38:30;6.32;;;3.35;;
58294;SDS011;45705;55.592;37.460;2024-02-26T00:40:56;9.95;;;3.65;;
58294;SDS011;45705;55.592;37.460;2024-02-26T00:43:22;7.47;;;3.42;;
58294;SDS011;45705;55.592;37.460;2024-02-26T00:45:47;5.85;;;3.75;;
58294;SDS011;45705;55.592;37.460;2024-02-26T00:48:13;8.48;;;3.90;;
58294;SDS011;45705;55.592;37.460;2024-02-26T00:50:39;6.22;;;3.75;;
58294;SDS011;45705;55.592;37.460;2024-02-26T00:53:05;6.93;;;3.50;;
58294;SDS011;45705;55.592;37.460;2024-02-26T00:55:31;7.00;;;3.55;;
58294;SDS011;45705;55.592;37.460;2024-02-26T00:57:57;6.65;;;3.70;;
58294;SDS011;45705;55.592;37.460;2024-02-26T01:00:22;7.70;;;3.90;;
58294;SDS011;45705;55.592;37.460;2024-02-26T01:02:48;7.63;;;3.47;;
58294;SDS011;45705;55.592;37.460;2024-02-26T01:05:14;8.63;;;3.30;;
58294;SDS011;45705;55.592;37.460;2024-02-26T01:07:41;4.85;;;3.10;;
58294;SDS011;45705;55.592;37.460;2024-02-26T01:10:07;7.70;;;3.50;;
58294;SDS011;45705;55.592;37.460;2024-02-26T01:12:33;6.38;;;3.00;;
58294;SDS011;45705;55.592;37.460;2024-02-26T01:15:00;16.25;;;4.13;;
58294;SDS011;45705;55.592;37.460;2024-02-26T01:17:26;9.63;;;3.28;;
58294;SDS011;45705;55.592;37.460;2024-02-26T01:19:52;8.15;;;3.67;;
58294;SDS011;45705;55.592;37.460;2024-02-26T01:22:19;6.75;;;3.30;;
58294;SDS011;45705;55.592;37.460;2024-02-26T01:24:44;5.40;;;2.97;;
58294;SDS011;45705;55.592;37.460;2024-02-26T01:27:10;4.47;;;2.70;;
58294;SDS011;45705;55.592;37.460;2024-02-26T01:29:36;5.40;;;3.08;;
58294;SDS011;45705;55.592;37.460;2024-02-26T01:32:02;5.10;;;3.13;;
58294;SDS011;45705;55.592;37.460;2024-02-26T01:34:30;6.40;;;3.20;;
58294;SDS011;45705;55.592;37.460;2024-02-26T01:36:55;7.00;;;3.70;;
58294;SDS011;45705;55.592;37.460;2024-02-26T01:39:21;8.80;;;3.45;;
58294;SDS011;45705;55.592;37.460;2024-02-26T01:41:47;7.47;;;3.25;;
58294;SDS011;45705;55.592;37.460;2024-02-26T01:44:13;6.63;;;2.95;;
58294;SDS011;45705;55.592;37.460;2024-02-26T01:46:39;3.83;;;2.67;;
58294;SDS011;45705;55.592;37.460;2024-02-26T01:49:05;7.13;;;2.67;;
58294;SDS011;45705;55.592;37.460;2024-02-26T01:51:32;4.30;;;2.85;;
58294;SDS011;45705;55.592;37.460;2024-02-26T01:53:59;5.32;;;2.55;;
58294;SDS011;45705;55.592;37.460;2024-02-26T01:56:27;4.25;;;2.83;;
58294;SDS011;45705;55.592;37.460;2024-02-26T01:58:55;4.45;;;2.47;;
58294;SDS011;45705;55.592;37.460;2024-02-26T02:01:22;5.97;;;3.20;;
58294;SDS011;45705;55.592;37.460;2024-02-26T02:06:17;5.20;;;2.70;;
58294;SDS011;45705;55.592;37.460;2024-02-26T02:08:44;5.07;;;2.40;;
58294;SDS011;45705;55.592;37.460;2024-02-26T02:11:10;3.97;;;2.63;;
58294;SDS011;45705;55.592;37.460;2024-02-26T02:13:37;8.98;;;3.00;;
58294;SDS011;45705;55.592;37.460;2024-02-26T02:16:03;4.65;;;2.35;;
58294;SDS011;45705;55.592;37.460;2024-02-26T02:18:29;3.70;;;2.60;;
58294;SDS011;45705;55.592;37.460;2024-02-26T02:20:55;7.30;;;2.80;;
58294;SDS011;45705;55.592;37.460;2024-02-26T02:23:24;4.78;;;2.58;;
58294;SDS011;45705;55.592;37.460;2024-02-26T02:25:50;6.68;;;2.92;;
58294;SDS011;45705;55.592;37.460;2024-02-26T02:28:17;4.43;;;2.65;;
58294;SDS011;45705;55.592;37.460;2024-02-26T02:30:43;6.03;;;3.10;;
58294;SDS011;45705;55.592;37.460;2024-02-26T02:33:08;4.25;;;2.58;;
58294;SDS011;45705;55.592;37.460;2024-02-26T02:35:34;5.57;;;3.00;;
58294;SDS011;45705;55.592;37.460;2024-02-26T02:38:00;7.88;;;2.92;;
58294;SDS011;45705;55.592;37.460;2024-02-26T02:40:26;7.05;;;2.78;;
58294;SDS011;45705;55.592;37.460;2024-02-26T02:42:51;6.85;;;3.03;;
58294;SDS011;45705;55.592;37.460;2024-02-26T02:45:17;6.30;;;2.80;;
58294;SDS011;45705;55.592;37.460;2024-02-26T02:47:42;5.28;;;2.92;;
58294;SDS011;45705;55.592;37.460;2024-02-26T02:50:08;3.63;;;2.33;;
58294;SDS011;45705;55.592;37.460;2024-02-26T02:52:34;4.32;;;2.40;;
58294;SDS011;45705;55.592;37.460;2024-02-26T02:55:00;8.27;;;3.72;;
58294;SDS011;45705;55.592;37.460;2024-02-26T02:57:26;5.03;;;2.33;;
58294;SDS011;45705;55.592;37.460;2024-02-26T02:59:52;7.13;;;2.95;;
58294;SDS011;45705;55.592;37.460;2024-02-26T03:02:17;7.72;;;2.80;;
58294;SDS011;45705;55.592;37.460;2024-02-26T03:04:43;5.45;;;2.55;;
58294;SDS011;45705;55.592;37.460;2024-02-26T03:07:09;9.52;;;2.60;;
58294;SDS011;45705;55.592;37.460;2024-02-26T03:09:34;6.38;;;2.60;;
58294;SDS011;45705;55.592;37.460;2024-02-26T03:12:00;4.70;;;2.20;;
58294;SDS011;45705;55.592;37.460;2024-02-26T03:14:26;5.72;;;2.22;;
58294;SDS011;45705;55.592;37.460;2024-02-26T03:16:55;5.65;;;2.65;;
58294;SDS011;45705;55.592;37.460;2024-02-26T03:19:20;6.25;;;3.15;;
58294;SDS011;45705;55.592;37.460;2024-02-26T03:21:46;6.85;;;2.67;;
58294;SDS011;45705;55.592;37.460;2024-02-26T03:24:12;4.22;;;2.50;;
58294;SDS011;45705;55.592;37.460;2024-02-26T03:26:38;6.00;;;2.58;;
58294;SDS011;45705;55.592;37.460;2024-02-26T03:29:04;5.80;;;2.25;;
58294;SDS011;45705;55.592;37.460;2024-02-26T03:31:30;5.13;;;2.63;;
58294;SDS011;45705;55.592;37.460;2024-02-26T03:33:56;4.47;;;2.20;;
58294;SDS011;45705;55.592;37.460;2024-02-26T03:36:21;5.47;;;2.50;;
58294;SDS011;45705;55.592;37.460;2024-02-26T03:38:48;6.70;;;2.60;;
58294;SDS011;45705;55.592;37.460;2024-02-26T03:41:13;6.45;;;2.85;;
58294;SDS011;45705;55.592;37.460;2024-02-26T03:43:39;4.38;;;2.47;;
58294;SDS011;45705;55.592;37.460;2024-02-26T03:46:08;6.78;;;3.45;;
58294;SDS011;45705;55.592;37.460;2024-02-26T03:48:36;5.35;;;2.65;;
58294;SDS011;45705;55.592;37.460;2024-02-26T03:51:02;4.28;;;2.72;;
58294;SDS011;45705;55.592;37.460;2024-02-26T03:53:28;7.10;;;2.65;;
58294;SDS011;45705;55.592;37.460;2024-02-26T03:55:54;3.95;;;2.63;;
58294;SDS011;45705;55.592;37.460;2024-02-26T03:58:20;4.03;;;2.90;;
58294;SDS011;45705;55.592;37.460;2024-02-26T04:00:46;4.93;;;2.58;;
58294;SDS011;45705;55.592;37.460;2024-02-26T04:03:15;9.48;;;2.97;;
58294;SDS011;45705;55.592;37.460;2024-02-26T04:05:41;7.60;;;3.10;;
58294;SDS011;45705;55.592;37.460;2024-02-26T04:08:06;4.35;;;2.65;;
58294;SDS011;45705;55.592;37.460;2024-02-26T04:10:33;6.20;;;2.80;;
58294;SDS011;45705;55.592;37.460;2024-02-26T04:13:00;6.97;;;2.95;;
58294;SDS011;45705;55.592;37.460;2024-02-26T04:15:26;8.85;;;3.03;;
58294;SDS011;45705;55.592;37.460;2024-02-26T04:17:52;8.80;;;3.08;;
58294;SDS011;45705;55.592;37.460;2024-02-26T04:20:17;9.38;;;3.38;;
58294;SDS011;45705;55.592;37.460;2024-02-26T04:22:43;4.82;;;2.88;;
58294;SDS011;45705;55.592;37.460;2024-02-26T04:25:09;6.43;;;3.30;;
58294;SDS011;45705;55.592;37.460;2024-02-26T04:27:35;6.55;;;3.60;;
58294;SDS011;45705;55.592;37.460;2024-02-26T04:30:01;6.45;;;2.97;;
58294;SDS011;45705;55.592;37.460;2024-02-26T04:32:27;6.35;;;3.53;;
58294;SDS011;45705;55.592;37.460;2024-02-26T04:34:53;7.03;;;3.25;;
58294;SDS011;45705;55.592;37.460;2024-02-26T04:37:19;7.70;;;3.80;;
58294;SDS011;45705;55.592;37.460;2024-02-26T04:39:45;5.80;;;3.00;;
58294;SDS011;45705;55.592;37.460;2024-02-26T04:42:10;6.60;;;3.50;;
58294;SDS011;45705;55.592;37.460;2024-02-26T04:44:36;5.38;;;2.95;;
58294;SDS011;45705;55.592;37.460;2024-02-26T04:47:02;9.15;;;2.70;;
58294;SDS011;45705;55.592;37.460;2024-02-26T04:49:28;12.23;;;4.30;;
58294;SDS011;45705;55.592;37.460;2024-02-26T04:51:53;8.25;;;3.50;;
58294;SDS011;45705;55.592;37.460;2024-02-26T04:54:19;8.10;;;3.70;;
58294;SDS011;45705;55.592;37.460;2024-02-26T04:56:46;6.88;;;3.63;;
58294;SDS011;45705;55.592;37.460;2024-02-26T04:59:11;8.82;;;3.60;;
58294;SDS011;45705;55.592;37.460;2024-02-26T05:01:37;10.38;;;3.53;;
58294;SDS011;45705;55.592;37.460;2024-02-26T05:04:03;6.20;;;3.10;;
58294;SDS011;45705;55.592;37.460;2024-02-26T05:06:29;6.03;;;3.75;;
58294;SDS011;45705;55.592;37.460;2024-02-26T05:08:55;5.53;;;3.80;;
58294;SDS011;45705;55.592;37.460;2024-02-26T05:11:20;6.82;;;3.03;;
58294;SDS011;45705;55.592;37.460;2024-02-26T05:13:47;7.60;;;3.75;;
58294;SDS011;45705;55.592;37.460;2024-02-26T05:16:13;8.32;;;3.63;;
58294;SDS011;45705;55.592;37.460;2024-02-26T05:18:39;6.85;;;3.63;;
58294;SDS011;45705;55.592;37.460;2024-02-26T05:21:04;8.82;;;4.13;;
58294;SDS011;45705;55.592;37.460;2024-02-26T05:23:30;9.68;;;3.80;;
58294;SDS011;45705;55.592;37.460;2024-02-26T05:25:56;8.88;;;4.40;;
58294;SDS011;45705;55.592;37.460;2024-02-26T05:28:21;6.25;;;3.58;;
58294;SDS011;45705;55.592;37.460;2024-02-26T05:30:47;7.72;;;4.25;;
58294;SDS011;45705;55.592;37.460;2024-02-26T05:33:13;8.30;;;3.90;;
58294;SDS011;45705;55.592;37.460;2024-02-26T05:35:38;8.30;;;3.95;;
58294;SDS011;45705;55.592;37.460;2024-02-26T05:38:05;6.68;;;3.67;;
58294;SDS011;45705;55.592;37.460;2024-02-26T05:40:31;10.43;;;3.85;;
58294;SDS011;45705;55.592;37.460;2024-02-26T05:42:57;11.05;;;4.38;;
58294;SDS011;45705;55.592;37.460;2024-02-26T05:45:23;7.00;;;3.85;;
58294;SDS011;45705;55.592;37.460;2024-02-26T05:47:48;11.23;;;4.35;;
58294;SDS011;45705;55.592;37.460;2024-02-26T05:50:15;7.15;;;4.18;;
58294;SDS011;45705;55.592;37.460;2024-02-26T05:52:41;8.95;;;4.70;;
58294;SDS011;45705;55.592;37.460;2024-02-26T05:55:06;7.50;;;3.80;;
58294;SDS011;45705;55.592;37.460;2024-02-26T05:57:33;8.52;;;3.88;;
58294;SDS011;45705;55.592;37.460;2024-02-26T06:00:00;6.80;;;3.67;;
58294;SDS011;45705;55.592;37.460;2024-02-26T06:02:36;8.45;;;4.25;;
58294;SDS011;45705;55.592;37.460;2024-02-26T06:05:03;8.65;;;3.88;;
58294;SDS011;45705;55.592;37.460;2024-02-26T06:07:29;8.70;;;4.15;;
58294;SDS011;45705;55.592;37.460;2024-02-26T06:09:54;10.20;;;4.25;;
58294;SDS011;45705;55.592;37.460;2024-02-26T06:12:20;8.77;;;4.55;;
58294;SDS011;45705;55.592;37.460;2024-02-26T06:14:46;8.10;;;4.18;;
58294;SDS011;45705;55.592;37.460;2024-02-26T06:17:12;9.15;;;4.30;;
58294;SDS011;45705;55.592;37.460;2024-02-26T06:19:38;9.25;;;4.57;;
58294;SDS011;45705;55.592;37.460;2024-02-26T06:22:04;10.93;;;4.88;;
58294;SDS011;45705;55.592;37.460;2024-02-26T06:24:29;8.60;;;4.82;;
58294;SDS011;45705;55.592;37.460;2024-02-26T06:26:55;7.00;;;4.18;;
58294;SDS011;45705;55.592;37.460;2024-02-26T06:29:21;10.07;;;4.63;;
58294;SDS011;45705;55.592;37.460;2024-02-26T06:31:46;11.95;;;4.88;;
58294;SDS011;45705;55.592;37.460;2024-02-26T06:34:13;10.65;;;5.32;;
58294;SDS011;45705;55.592;37.460;2024-02-26T06:36:39;9.32;;;4.22;;
58294;SDS011;45705;55.592;37.460;2024-02-26T06:39:05;10.30;;;4.43;;
58294;SDS011;45705;55.592;37.460;2024-02-26T06:41:30;11.25;;;5.28;;
58294;SDS011;45705;55.592;37.460;2024-02-26T06:43:56;12.43;;;4.88;;
58294;SDS011;45705;55.592;37.460;2024-02-26T06:46:22;8.80;;;4.55;;
58294;SDS011;45705;55.592;37.460;2024-02-26T06:48:48;10.20;;;5.20;;
58294;SDS011;45705;55.592;37.460;2024-02-26T06:51:14;11.57;;;5.05;;
58294;SDS011;45705;55.592;37.460;2024-02-26T06:53:40;15.10;;;5.38;;
58294;SDS011;45705;55.592;37.460;2024-02-26T06:56:06;10.63;;;4.78;;
58294;SDS011;45705;55.592;37.460;2024-02-26T06:58:31;8.52;;;4.20;;
58294;SDS011;45705;55.592;37.460;2024-02-26T07:00:58;16.77;;;4.75;;
58294;SDS011;45705;55.592;37.460;2024-02-26T07:03:24;11.63;;;5.05;;
58294;SDS011;45705;55.592;37.460;2024-02-26T07:05:51;13.18;;;5.32;;
58294;SDS011;45705;55.592;37.460;2024-02-26T07:08:17;8.90;;;4.75;;
58294;SDS011;45705;55.592;37.460;2024-02-26T07:10:43;11.18;;;5.25;;
58294;SDS011;45705;55.592;37.460;2024-02-26T07:13:09;8.65;;;4.22;;
58294;SDS011;45705;55.592;37.460;2024-02-26T07:15:34;13.80;;;4.95;;
58294;SDS011;45705;55.592;37.460;2024-02-26T07:18:00;9.63;;;5.15;;
58294;SDS011;45705;55.592;37.460;2024-02-26T07:20:29;14.18;;;4.05;;
58294;SDS011;45705;55.592;37.460;2024-02-26T07:22:55;11.43;;;5.25;;
58294;SDS011;45705;55.592;37.460;2024-02-26T07:25:21;11.13;;;5.25;;
58294;SDS011;45705;55.592;37.460;2024-02-26T07:27:47;11.45;;;4.97;;
58294;SDS011;45705;55.592;37.460;2024-02-26T07:30:13;13.35;;;4.68;;
58294;SDS011;45705;55.592;37.460;2024-02-26T07:32:39;11.63;;;4.68;;
58294;SDS011;45705;55.592;37.460;2024-02-26T07:35:05;9.32;;;4.05;;
58294;SDS011;45705;55.592;37.460;2024-02-26T07:37:31;13.10;;;4.97;;
58294;SDS011;45705;55.592;37.460;2024-02-26T07:39:58;10.52;;;5.32;;
58294;SDS011;45705;55.592;37.460;2024-02-26T07:42:24;11.35;;;5.10;;
58294;SDS011;45705;55.592;37.460;2024-02-26T07:44:50;8.70;;;4.15;;
58294;SDS011;45705;55.592;37.460;2024-02-26T07:47:16;11.68;;;5.25;;
58294;SDS011;45705;55.592;37.460;2024-02-26T07:49:42;13.77;;;4.78;;
58294;SDS011;45705;55.592;37.460;2024-02-26T07:52:07;10.68;;;5.05;;
58294;SDS011;45705;55.592;37.460;2024-02-26T07:54:33;14.45;;;5.32;;
58294;SDS011;45705;55.592;37.460;2024-02-26T07:56:59;9.50;;;5.15;;
58294;SDS011;45705;55.592;37.460;2024-02-26T07:59:24;11.57;;;5.07;;
58294;SDS011;45705;55.592;37.460;2024-02-26T08:01:50;10.20;;;5.57;;
58294;SDS011;45705;55.592;37.460;2024-02-26T08:04:17;11.45;;;5.53;;
58294;SDS011;45705;55.592;37.460;2024-02-26T08:06:42;11.60;;;5.22;;
58294;SDS011;45705;55.592;37.460;2024-02-26T08:09:08;12.40;;;5.53;;
58294;SDS011;45705;55.592;37.460;2024-02-26T08:11:34;11.40;;;5.30;;
58294;SDS011;45705;55.592;37.460;2024-02-26T08:14:00;12.75;;;5.25;;
58294;SDS011;45705;55.592;37.460;2024-02-26T08:16:26;13.23;;;5.05;;
58294;SDS011;45705;55.592;37.460;2024-02-26T08:18:52;10.15;;;4.57;;
58294;SDS011;45705;55.592;37.460;2024-02-26T08:21:18;16.23;;;5.15;;
58294;SDS011;45705;55.592;37.460;2024-02-26T08:23:44;8.27;;;4.53;;
58294;SDS011;45705;55.592;37.460;2024-02-26T08:26:10;11.98;;;4.97;;
58294;SDS011;45705;55.592;37.460;2024-02-26T08:28:36;14.07;;;4.78;;
58294;SDS011;45705;55.592;37.460;2024-02-26T08:31:03;9.82;;;4.85;;
58294;SDS011;45705;55.592;37.460;2024-02-26T08:33:29;10.32;;;5.07;;
58294;SDS011;45705;55.592;37.460;2024-02-26T08:35:56;13.40;;;4.72;;
58294;SDS011;45705;55.592;37.460;2024-02-26T08:38:22;12.27;;;4.93;;
58294;SDS011;45705;55.592;37.460;2024-02-26T08:40:48;11.88;;;5.18;;
58294;SDS011;45705;55.592;37.460;2024-02-26T08:43:14;9.10;;;4.72;;
58294;SDS011;45705;55.592;37.460;2024-02-26T08:45:39;9.40;;;5.00;;
58294;SDS011;45705;55.592;37.460;2024-02-26T08:48:05;10.80;;;4.78;;
58294;SDS011;45705;55.592;37.460;2024-02-26T08:50:32;9.32;;;5.32;;
58294;SDS011;45705;55.592;37.460;2024-02-26T08:52:58;10.10;;;5.10;;
58294;SDS011;45705;55.592;37.460;2024-02-26T08:55:26;12.00;;;5.05;;
58294;SDS011;45705;55.592;37.460;2024-02-26T08:57:52;12.98;;;5.30;;
58294;SDS011;45705;55.592;37.460;2024-02-26T09:00:17;6.95;;;4.03;;
58294;SDS011;45705;55.592;37.460;2024-02-26T09:02:46;9.18;;;4.47;;
58294;SDS011;45705;55.592;37.460;2024-02-26T09:05:12;9.45;;;4.90;;
58294;SDS011;45705;55.592;37.460;2024-02-26T09:07:38;9.23;;;4.80;;
58294;SDS011;45705;55.592;37.460;2024-02-26T09:10:05;10.30;;;5.25;;
58294;SDS011;45705;55.592;37.460;2024-02-26T09:12:31;10.13;;;4.40;;
58294;SDS011;45705;55.592;37.460;2024-02-26T09:14:57;12.65;;;5.45;;
58294;SDS011;45705;55.592;37.460;2024-02-26T09:17:22;8.40;;;3.90;;
58294;SDS011;45705;55.592;37.460;2024-02-26T09:19:48;10.15;;;4.57;;
58294;SDS011;45705;55.592;37.460;2024-02-26T09:22:14;8.98;;;3.42;;
58294;SDS011;45705;55.592;37.460;2024-02-26T09:24:40;10.82;;;4.63;;
58294;SDS011;45705;55.592;37.460;2024-02-26T09:27:05;9.80;;;4.65;;
58294;SDS011;45705;55.592;37.460;2024-02-26T09:29:31;13.35;;;5.20;;
58294;SDS011;45705;55.592;37.460;2024-02-26T09:31:58;12.38;;;4.93;;
58294;SDS011;45705;55.592;37.460;2024-02-26T09:34:24;8.77;;;4.68;;
58294;SDS011;45705;55.592;37.460;2024-02-26T09:36:49;7.85;;;4.15;;
58294;SDS011;45705;55.592;37.460;2024-02-26T09:39:15;15.43;;;5.20;;
58294;SDS011;45705;55.592;37.460;2024-02-26T09:41:47;10.80;;;4.53;;
58294;SDS011;45705;55.592;37.460;2024-02-26T09:44:19;9.07;;;4.45;;
58294;SDS011;45705;55.592;37.460;2024-02-26T09:46:47;10.82;;;5.10;;
58294;SDS011;45705;55.592;37.460;2024-02-26T09:49:15;8.63;;;4.05;;
58294;SDS011;45705;55.592;37.460;2024-02-26T09:51:41;13.55;;;5.43;;
58294;SDS011;45705;55.592;37.460;2024-02-26T09:54:10;13.15;;;5.00;;
58294;SDS011;45705;55.592;37.460;2024-02-26T09:56:39;13.55;;;4.93;;
58294;SDS011;45705;55.592;37.460;2024-02-26T09:59:13;9.38;;;4.70;;
58294;SDS011;45705;55.592;37.460;2024-02-26T10:01:42;12.52;;;4.60;;
58294;SDS011;45705;55.592;37.460;2024-02-26T10:04:09;9.77;;;4.85;;
58294;SDS011;45705;55.592;37.460;2024-02-26T10:06:37;12.88;;;5.20;;
58294;SDS011;45705;55.592;37.460;2024-02-26T10:09:03;8.95;;;4.57;;
58294;SDS011;45705;55.592;37.460;2024-02-26T10:11:32;11.02;;;4.95;;
58294;SDS011;45705;55.592;37.460;2024-02-26T10:13:58;9.02;;;4.78;;
58294;SDS011;45705;55.592;37.460;2024-02-26T10:16:24;9.48;;;4.93;;
58294;SDS011;45705;55.592;37.460;2024-02-26T10:18:52;12.75;;;4.95;;
58294;SDS011;45705;55.592;37.460;2024-02-26T10:21:22;14.10;;;5.18;;
58294;SDS011;45705;55.592;37.460;2024-02-26T10:23:48;7.70;;;4.60;;
58294;SDS011;45705;55.592;37.460;2024-02-26T10:26:18;9.38;;;4.88;;
58294;SDS011;45705;55.592;37.460;2024-02-26T10:28:44;10.15;;;4.68;;
58294;SDS011;45705;55.592;37.460;2024-02-26T10:31:11;12.55;;;5.03;;
58294;SDS011;45705;55.592;37.460;2024-02-26T10:33:39;13.00;;;4.60;;
58294;SDS011;45705;55.592;37.460;2024-02-26T10:36:08;10.07;;;5.60;;
58294;SDS011;45705;55.592;37.460;2024-02-26T10:38:37;11.88;;;4.60;;
58294;SDS011;45705;55.592;37.460;2024-02-26T10:43:29;11.68;;;4.38;;
58294;SDS011;45705;55.592;37.460;2024-02-26T10:45:55;14.70;;;5.28;;
58294;SDS011;45705;55.592;37.460;2024-02-26T10:48:21;10.45;;;5.22;;
58294;SDS011;45705;55.592;37.460;2024-02-26T10:50:48;8.43;;;4.18;;
58294;SDS011;45705;55.592;37.460;2024-02-26T10:53:22;10.57;;;4.63;;
58294;SDS011;45705;55.592;37.460;2024-02-26T10:55:49;10.65;;;4.95;;
58294;SDS011;45705;55.592;37.460;2024-02-26T10:58:21;12.52;;;4.65;;
58294;SDS011;45705;55.592;37.460;2024-02-26T11:00:48;12.70;;;4.43;;
58294;SDS011;45705;55.592;37.460;2024-02-26T11:03:15;13.65;;;4.75;;
58294;SDS011;45705;55.592;37.460;2024-02-26T11:05:46;9.82;;;4.72;;
58294;SDS011;45705;55.592;37.460;2024-02-26T11:08:13;14.88;;;6.15;;
58294;SDS011;45705;55.592;37.460;2024-02-26T11:10:40;14.43;;;5.57;;
58294;SDS011;45705;55.592;37.460;2024-02-26T11:13:08;15.38;;;6.10;;
58294;SDS011;45705;55.592;37.460;2024-02-26T11:15:37;14.57;;;6.18;;
58294;SDS011;45705;55.592;37.460;2024-02-26T11:18:04;10.93;;;5.38;;
58294;SDS011;45705;55.592;37.460;2024-02-26T11:20:32;13.10;;;5.85;;
58294;SDS011;45705;55.592;37.460;2024-02-26T11:22:59;11.85;;;4.82;;
58294;SDS011;45705;55.592;37.460;2024-02-26T11:25:25;7.43;;;4.40;;
58294;SDS011;45705;55.592;37.460;2024-02-26T11:27:54;13.00;;;5.28;;
58294;SDS011;45705;55.592;37.460;2024-02-26T11:30:24;17.17;;;4.90;;
58294;SDS011;45705;55.592;37.460;2024-02-26T11:32:51;10.82;;;4.68;;
58294;SDS011;45705;55.592;37.460;2024-02-26T11:35:18;11.18;;;5.32;;
58294;SDS011;45705;55.592;37.460;2024-02-26T11:37:54;13.93;;;5.70;;
58294;SDS011;45705;55.592;37.460;2024-02-26T11:40:24;14.18;;;6.00;;
58294;SDS011;45705;55.592;37.460;2024-02-26T11:42:53;12.60;;;5.90;;
58294;SDS011;45705;55.592;37.460;2024-02-26T11:45:47;9.45;;;4.90;;
58294;SDS011;45705;55.592;37.460;2024-02-26T11:48:24;18.23;;;6.10;;
58294;SDS011;45705;55.592;37.460;2024-02-26T11:53:30;11.95;;;5.47;;
58294;SDS011;45705;55.592;37.460;2024-02-26T11:58:47;11.55;;;5.82;;
58294;SDS011;45705;55.592;37.460;2024-02-26T12:04:05;13.65;;;5.28;;
58294;SDS011;45705;55.592;37.460;2024-02-26T12:06:42;17.17;;;5.47;;
58294;SDS011;45705;55.592;37.460;2024-02-26T12:09:12;15.13;;;5.32;;
58294;SDS011;45705;55.592;37.460;2024-02-26T12:11:41;18.65;;;6.65;;
58294;SDS011;45705;55.592;37.460;2024-02-26T12:14:08;16.70;;;5.85;;
58294;SDS011;45705;55.592;37.460;2024-02-26T12:16:38;18.20;;;6.00;;
58294;SDS011;45705;55.592;37.460;2024-02-26T12:19:05;13.60;;;5.70;;
58294;SDS011;45705;55.592;37.460;2024-02-26T12:21:36;15.87;;;6.53;;
58294;SDS011;45705;55.592;37.460;2024-02-26T12:24:14;14.40;;;5.68;;
58294;SDS011;45705;55.592;37.460;2024-02-26T12:26:41;12.15;;;5.85;;
58294;SDS011;45705;55.592;37.460;2024-02-26T12:29:07;16.77;;;5.82;;
58294;SDS011;45705;55.592;37.460;2024-02-26T12:31:33;18.20;;;6.32;;
58294;SDS011;45705;55.592;37.460;2024-02-26T12:34:00;12.45;;;5.05;;
58294;SDS011;45705;55.592;37.460;2024-02-26T12:36:26;14.25;;;5.53;;
58294;SDS011;45705;55.592;37.460;2024-02-26T12:38:52;14.43;;;5.32;;
58294;SDS011;45705;55.592;37.460;2024-02-26T12:41:18;11.18;;;5.07;;
58294;SDS011;45705;55.592;37.460;2024-02-26T12:43:44;13.15;;;5.40;;
58294;SDS011;45705;55.592;37.460;2024-02-26T12:46:10;16.25;;;5.75;;
58294;SDS011;45705;55.592;37.460;2024-02-26T12:48:36;13.88;;;5.70;;
58294;SDS011;45705;55.592;37.460;2024-02-26T12:51:03;21.08;;;6.28;;
58294;SDS011;45705;55.592;37.460;2024-02-26T12:53:29;17.05;;;5.70;;
58294;SDS011;45705;55.592;37.460;2024-02-26T12:55:54;18.60;;;5.57;;
58294;SDS011;45705;55.592;37.460;2024-02-26T12:58:21;16.02;;;6.35;;
58294;SDS011;45705;55.592;37.460;2024-02-26T13:03:20;17.05;;;5.45;;
58294;SDS011;45705;55.592;37.460;2024-02-26T13:05:47;16.70;;;5.63;;
58294;SDS011;45705;55.592;37.460;2024-02-26T13:08:17;16.85;;;6.15;;
58294;SDS011;45705;55.592;37.460;2024-02-26T13:10:45;17.15;;;5.85;;
58294;SDS011;45705;55.592;37.460;2024-02-26T13:13:14;12.73;;;5.45;;
58294;SDS011;45705;55.592;37.460;2024-02-26T13:15:42;18.75;;;6.40;;
58294;SDS011;45705;55.592;37.460;2024-02-26T13:18:12;24.83;;;6.20;;
58294;SDS011;45705;55.592;37.460;2024-02-26T13:20:39;11.80;;;5.20;;
58294;SDS011;45705;55.592;37.460;2024-02-26T13:23:06;13.70;;;4.95;;
58294;SDS011;45705;55.592;37.460;2024-02-26T13:25:34;12.10;;;5.57;;
58294;SDS011;45705;55.592;37.460;2024-02-26T13:28:07;11.85;;;4.93;;
58294;SDS011;45705;55.592;37.460;2024-02-26T13:30:34;12.50;;;4.68;;
58294;SDS011;45705;55.592;37.460;2024-02-26T13:33:07;10.30;;;4.68;;
58294;SDS011;45705;55.592;37.460;2024-02-26T13:35:34;12.23;;;4.82;;
58294;SDS011;45705;55.592;37.460;2024-02-26T13:38:01;13.70;;;5.10;;
58294;SDS011;45705;55.592;37.460;2024-02-26T13:40:28;9.63;;;4.50;;
58294;SDS011;45705;55.592;37.460;2024-02-26T13:42:54;11.13;;;4.22;;
58294;SDS011;45705;55.592;37.460;2024-02-26T13:45:20;11.70;;;4.53;;
58294;SDS011;45705;55.592;37.460;2024-02-26T13:47:45;12.80;;;4.20;;
58294;SDS011;45705;55.592;37.460;2024-02-26T13:50:11;12.88;;;4.53;;
58294;SDS011;45705;55.592;37.460;2024-02-26T13:52:37;12.25;;;4.30;;
58294;SDS011;45705;55.592;37.460;2024-02-26T13:55:03;9.35;;;4.20;;
58294;SDS011;45705;55.592;37.460;2024-02-26T13:57:29;10.50;;;4.47;;
58294;SDS011;45705;55.592;37.460;2024-02-26T13:59:55;9.57;;;4.78;;
58294;SDS011;45705;55.592;37.460;2024-02-26T14:02:21;9.60;;;4.38;;
58294;SDS011;45705;55.592;37.460;2024-02-26T14:04:47;9.95;;;4.18;;
58294;SDS011;45705;55.592;37.460;2024-02-26T14:07:13;13.30;;;3.90;;
58294;SDS011;45705;55.592;37.460;2024-02-26T14:09:39;7.88;;;4.57;;
58294;SDS011;45705;55.592;37.460;2024-02-26T14:12:05;10.63;;;4.75;;
58294;SDS011;45705;55.592;37.460;2024-02-26T14:14:31;11.38;;;4.50;;
58294;SDS011;45705;55.592;37.460;2024-02-26T14:17:00;12.27;;;4.13;;
58294;SDS011;45705;55.592;37.460;2024-02-26T14:19:26;10.98;;;4.78;;
58294;SDS011;45705;55.592;37.460;2024-02-26T14:21:52;13.73;;;4.15;;
58294;SDS011;45705;55.592;37.460;2024-02-26T14:24:18;9.23;;;4.65;;
58294;SDS011;45705;55.592;37.460;2024-02-26T14:26:43;6.22;;;3.50;;
58294;SDS011;45705;55.592;37.460;2024-02-26T14:29:09;11.43;;;4.50;;
58294;SDS011;45705;55.592;37.460;2024-02-26T14:31:35;9.43;;;4.43;;
58294;SDS011;45705;55.592;37.460;2024-02-26T14:34:00;9.95;;;4.63;;
58294;SDS011;45705;55.592;37.460;2024-02-26T14:36:26;9.27;;;4.10;;
58294;SDS011;45705;55.592;37.460;2024-02-26T14:38:52;10.13;;;4.28;;
58294;SDS011;45705;55.592;37.460;2024-02-26T14:41:17;10.80;;;4.05;;